createdAt,value
2023-01-01T00:00:45.188Z,100
2023-01-01T00:05:43.366Z,100
2023-01-01T00:10:41.695Z,100
2023-01-01T00:15:40.122Z,100
2023-01-01T00:20:38.271Z,100
2023-01-01T00:25:36.543Z,100
2023-01-01T00:30:34.827Z,100
2023-01-01T00:35:33.098Z,100
2023-01-01T00:40:31.343Z,100
2023-01-01T00:45:29.655Z,100
2023-01-01T00:50:27.746Z,100
2023-01-01T00:55:25.971Z,100
2023-01-01T01:00:24.225Z,100
2023-01-01T01:05:22.589Z,100
2023-01-01T01:10:20.932Z,100
2023-01-01T01:15:19.210Z,100
2023-01-01T01:20:17.496Z,100
2023-01-01T01:25:15.832Z,100
2023-01-01T01:30:14.108Z,100
2023-01-01T01:35:12.410Z,100
2023-01-01T01:40:10.664Z,100
2023-01-01T01:45:08.922Z,100
2023-01-01T01:50:07.128Z,100
2023-01-01T01:55:05.403Z,100
2023-01-01T02:00:10.571Z,100
2023-01-01T02:05:02.775Z,100
2023-01-01T02:10:01.027Z,100
2023-01-01T02:14:59.269Z,100
2023-01-01T02:19:57.683Z,100
2023-01-01T02:24:55.831Z,100
2023-01-01T02:29:54.063Z,100
2023-01-01T02:34:52.405Z,100
2023-01-01T02:39:50.765Z,100
2023-01-01T02:44:49.020Z,100
2023-01-01T02:49:47.143Z,100
2023-01-01T02:54:59.798Z,100
2023-01-01T02:59:55.701Z,100
2023-01-01T03:04:53.866Z,100
2023-01-01T03:09:52.039Z,100
2023-01-01T03:14:50.248Z,100
2023-01-01T03:19:48.392Z,100
2023-01-01T03:24:46.642Z,100
2023-01-01T03:29:44.831Z,100
2023-01-01T03:34:43.016Z,100
2023-01-01T03:39:41.266Z,100
2023-01-01T03:44:39.434Z,100
2023-01-01T03:49:37.664Z,100
2023-01-01T03:54:35.580Z,100
2023-01-01T03:59:33.853Z,100
2023-01-01T04:04:32.007Z,100
2023-01-01T04:09:30.182Z,100
2023-01-01T04:14:28.410Z,100
2023-01-01T04:19:26.643Z,100
2023-01-01T04:24:24.833Z,100
2023-01-01T04:29:23.042Z,100
2023-01-01T04:34:21.508Z,100
2023-01-01T04:39:19.614Z,100
2023-01-01T04:44:18.014Z,100
2023-01-01T04:49:16.664Z,100
2023-01-01T04:54:15.224Z,100
2023-01-01T04:59:13.380Z,100
2023-01-01T05:04:11.311Z,100
2023-01-01T05:09:09.290Z,100
2023-01-01T05:14:07.366Z,100
2023-01-01T05:19:05.399Z,100
2023-01-01T05:24:03.803Z,100
2023-01-01T05:29:01.893Z,100
2023-01-01T05:38:58.225Z,100
2023-01-01T05:43:56.351Z,100
2023-01-01T05:48:54.484Z,100
2023-01-01T05:53:52.805Z,100
2023-01-01T05:58:51.092Z,100
2023-01-01T06:03:50.043Z,100
2023-01-01T06:08:48.590Z,100
2023-01-01T06:13:47.343Z,100
2023-01-01T06:18:46.061Z,100
2023-01-01T06:23:44.763Z,100
2023-01-01T06:28:43.474Z,100
2023-01-01T06:33:42.102Z,100
2023-01-01T06:38:40.709Z,100
2023-01-01T06:43:39.363Z,100
2023-01-01T06:48:37.988Z,100
2023-01-01T06:53:36.460Z,100
2023-01-01T06:58:35.008Z,100
2023-01-01T07:03:33.979Z,100
2023-01-01T07:08:33.321Z,100
2023-01-01T07:13:35.816Z,91.4
2023-01-01T07:18:33.467Z,92.8
2023-01-01T07:23:30.850Z,95
2023-01-01T07:28:29.052Z,97.2
2023-01-01T07:33:28.248Z,94.3
2023-01-01T07:38:28.618Z,85.9
2023-01-01T07:43:29.883Z,76.9
2023-01-01T07:48:27.209Z,79
2023-01-01T07:53:25.754Z,76.6
2023-01-01T07:58:23.250Z,78.6
2023-01-01T08:03:21.444Z,77.7
2023-01-01T08:08:19.955Z,76.8
2023-01-01T08:13:19.131Z,75.2
2023-01-01T08:18:18.013Z,71.8
2023-01-01T08:23:16.680Z,71.4
2023-01-01T08:28:19.478Z,61.9
2023-01-01T08:33:19.486Z,54.8
2023-01-01T08:38:16.675Z,57
2023-01-01T08:43:13.001Z,60.3
2023-01-01T08:48:09.619Z,64.1
2023-01-01T08:53:07.516Z,65.4
2023-01-01T08:58:06.697Z,64.7
2023-01-01T09:03:06.368Z,61.3
2023-01-01T09:08:04.918Z,60.5
2023-01-01T09:13:03.959Z,59.3
2023-01-01T09:18:03.053Z,58.3
2023-01-01T09:23:05.769Z,54.9
2023-01-01T09:28:04.001Z,50
2023-01-01T09:33:04.107Z,47.2
2023-01-01T09:38:03.408Z,45.8
2023-01-01T09:43:00.906Z,44.7
2023-01-01T09:48:01.322Z,41.7
2023-01-01T09:53:00.287Z,40
2023-01-01T09:57:58.876Z,39
2023-01-01T10:02:57.455Z,38.9
2023-01-01T10:07:56.243Z,38
2023-01-01T10:12:54.327Z,37.9
2023-01-01T10:17:52.859Z,36.8
2023-01-01T10:22:51.101Z,36.5
2023-01-01T10:27:53.943Z,36.6
2023-01-01T10:32:48.614Z,36
2023-01-01T10:37:47.284Z,35.1
2023-01-01T10:42:45.472Z,35.7
2023-01-01T10:47:43.910Z,35.5
2023-01-01T10:52:41.614Z,36.7
2023-01-01T10:57:39.400Z,37.6
2023-01-01T11:02:37.272Z,38.6
2023-01-01T11:07:35.265Z,39.4
2023-01-01T11:13:03.408Z,41.1
2023-01-01T11:17:29.993Z,43.2
2023-01-01T11:22:27.490Z,45.2
2023-01-01T11:27:24.922Z,47.9
2023-01-01T11:32:22.427Z,49.9
2023-01-01T11:37:19.970Z,51.8
2023-01-01T11:42:17.799Z,52.8
2023-01-01T11:47:16.151Z,54.3
2023-01-01T11:52:13.868Z,56.1
2023-01-01T11:57:11.466Z,57.6
2023-01-01T12:02:09.473Z,60.5
2023-01-01T12:07:07.315Z,62.2
2023-01-01T12:12:05.363Z,63.9
2023-01-01T12:17:03.716Z,64.3
2023-01-01T12:22:02.005Z,64.5
2023-01-01T12:27:02.848Z,65.8
2023-01-01T12:31:58.367Z,66
2023-01-01T12:36:56.503Z,66.7
2023-01-01T12:41:54.695Z,67.6
2023-01-01T12:46:52.930Z,68.3
2023-01-01T12:51:51.170Z,69.9
2023-01-01T12:56:49.204Z,72.1
2023-01-01T13:01:47.110Z,75.1
2023-01-01T13:06:44.521Z,80.6
2023-01-01T13:11:45.085Z,85.6
2023-01-01T13:16:40.246Z,91.7
2023-01-01T13:21:37.940Z,94.2
2023-01-01T13:26:36.105Z,94.2
2023-01-01T13:31:34.152Z,96.3
2023-01-01T13:36:32.416Z,98
2023-01-01T13:41:30.476Z,99.8
2023-01-01T13:46:28.913Z,100
2023-01-01T13:51:55.294Z,100
2023-01-01T13:56:25.143Z,100
2023-01-01T14:01:23.533Z,100
2023-01-01T14:06:21.554Z,100
2023-01-01T14:11:19.832Z,100
2023-01-01T14:16:18.155Z,100
2023-01-01T14:21:16.634Z,100
2023-01-01T14:26:14.833Z,100
2023-01-01T14:31:13.130Z,100
2023-01-01T14:36:11.380Z,100
2023-01-01T14:41:09.744Z,100
2023-01-01T14:46:11.266Z,100
2023-01-01T14:51:06.052Z,100
2023-01-01T14:56:04.338Z,100
2023-01-01T15:01:02.504Z,100
2023-01-01T15:06:00.352Z,100
2023-01-01T15:10:58.709Z,100
2023-01-01T15:15:56.953Z,100
2023-01-01T15:20:55.044Z,100
2023-01-01T15:25:53.393Z,100
2023-01-01T15:30:51.655Z,100
2023-01-01T15:35:49.814Z,100
2023-01-01T15:40:53.174Z,100
2023-01-01T15:45:46.291Z,100
2023-01-01T15:50:44.607Z,100
2023-01-01T15:55:43.179Z,100
2023-01-01T16:00:49.863Z,100
2023-01-01T16:05:46.650Z,100
2023-01-01T16:10:44.867Z,100
2023-01-01T16:15:47.853Z,100
2023-01-01T16:20:41.613Z,100
2023-01-01T16:25:40.124Z,100
2023-01-01T16:30:38.670Z,100
2023-01-01T16:35:36.955Z,100
2023-01-01T16:40:37.775Z,100
2023-01-01T16:45:33.848Z,100
2023-01-01T16:50:31.990Z,100
2023-01-01T16:55:30.379Z,100
2023-01-01T17:00:28.701Z,100
2023-01-01T17:05:27.370Z,100
2023-01-01T17:10:26.175Z,100
2023-01-01T17:15:24.906Z,100
2023-01-01T17:20:23.206Z,100
2023-01-01T17:25:21.776Z,100
2023-01-01T17:30:20.402Z,100
2023-01-01T17:35:18.806Z,100
2023-01-01T17:40:17.517Z,100
2023-01-01T17:45:16.338Z,100
2023-01-01T17:50:14.536Z,100
2023-01-01T17:55:12.965Z,100
2023-01-01T18:00:11.315Z,100
2023-01-01T18:05:09.818Z,100
2023-01-01T18:10:08.625Z,100
2023-01-01T18:15:06.967Z,100
2023-01-01T18:20:06.409Z,100
2023-01-01T18:25:04.594Z,100
2023-01-01T18:30:03.149Z,100
2023-01-01T18:35:01.405Z,100
2023-01-01T18:39:59.612Z,100
2023-01-01T18:44:57.895Z,100
2023-01-01T18:49:56.202Z,100
2023-01-01T18:54:54.576Z,100
2023-01-01T18:59:52.907Z,100
2023-01-01T19:04:51.068Z,100
2023-01-01T19:09:52.983Z,100
2023-01-01T19:14:47.742Z,100
2023-01-01T19:19:46.532Z,100
2023-01-01T19:24:44.937Z,100
2023-01-01T19:29:43.175Z,100
2023-01-01T19:34:41.334Z,100
2023-01-01T19:39:39.527Z,100
2023-01-01T19:44:38.077Z,100
2023-01-01T19:49:37.197Z,100
2023-01-01T19:54:36.039Z,100
2023-01-01T19:59:34.847Z,100
2023-01-01T20:04:33.228Z,100
2023-01-01T20:09:31.447Z,100
2023-01-01T20:14:30.036Z,100
2023-01-01T20:19:28.493Z,100
2023-01-01T20:24:26.851Z,100
2023-01-01T20:29:25.013Z,100
2023-01-01T20:34:23.150Z,100
2023-01-01T20:39:21.418Z,100
2023-01-01T20:44:19.688Z,100
2023-01-01T20:49:17.916Z,100
2023-01-01T20:54:17.773Z,100
2023-01-01T20:59:33.944Z,100
2023-01-01T21:04:13.763Z,100
2023-01-01T21:09:12.377Z,100
2023-01-01T21:14:10.625Z,100
2023-01-01T21:19:08.849Z,100
2023-01-01T21:24:06.989Z,100
2023-01-01T21:29:05.294Z,100
2023-01-01T21:34:03.445Z,100
2023-01-01T21:39:01.839Z,100
2023-01-01T21:43:58.801Z,100
2023-01-01T21:48:57.027Z,100
2023-01-01T21:53:55.451Z,100
2023-01-01T21:58:54.219Z,100
2023-01-01T22:03:52.576Z,100
2023-01-01T22:08:50.833Z,100
2023-01-01T22:13:49.407Z,100
2023-01-01T22:18:47.633Z,100
2023-01-01T22:23:45.836Z,100
2023-01-01T22:28:44.365Z,100
2023-01-01T22:33:42.521Z,100
2023-01-01T22:38:40.822Z,100
2023-01-01T22:43:38.957Z,100
2023-01-01T22:48:37.115Z,100
2023-01-01T22:53:35.412Z,100
2023-01-01T22:58:33.890Z,100
2023-01-01T23:03:32.264Z,100
2023-01-01T23:08:30.553Z,100
2023-01-01T23:13:28.853Z,100
2023-01-01T23:18:27.186Z,100
2023-01-01T23:23:25.290Z,100
2023-01-01T23:28:23.404Z,100
2023-01-01T23:33:21.981Z,100
2023-01-01T23:38:20.175Z,100
2023-01-01T23:43:18.444Z,100
2023-01-01T23:48:16.623Z,100
2023-01-01T23:53:15.001Z,100
2023-01-01T23:58:13.267Z,100
